AirNav   Everest Fuels
 
 1575 users online  

8CA0 Osborne Airport
Victorville, California, USA

GOING TO VICTORVILLE?


FAA INFORMATION EFFECTIVE 04 NOVEMBER 2021

Location

FAA Identifier: 8CA0
Lat/Long: 34-35-01.9770N 117-16-00.1610W
34-35.032950N 117-16.002683W
34.5838825,-117.2667114
(estimated)
Elevation: 2900 ft. / 884 m (estimated)
Variation: 14E (1990)
From city: 4 miles NE of VICTORVILLE, CA
Time zone: UTC -7 (UTC -8 during Standard Time)
Zip code: 92307

Airport Operations

Airport use: Private use. Permission required prior to landing
Activation date: 04/1991
Control tower: no
ARTCC: LOS ANGELES CENTER
FSS: RIVERSIDE FLIGHT SERVICE STATION
Attendance: MON-FRI 0700-1900
Wind indicator: yes
Segmented circle: no

Airport Communications

WX AWOS-3 at VCV (6 nm W): 135.475 (760-246-3635)

Nearby radio navigation aids

VOR radial/distance  VOR name  Freq  Var
VCVr082/6.1VICTORVILLE VOR/DME109.0514E
EDWr124/33.1EDWARDS VORTAC116.4012E
RALr360/(38.8)RIVERSIDE VOR112.4014E
PMDr079/39.5PALMDALE VORTAC114.5015E
POMr025/39.8POMONA VORTAC110.4015E

Airport Services

Runway Information

Runway 2/20

Dimensions: 2600 x 80 ft. / 792 x 24 m
Surface: asphalt
RUNWAY 2  RUNWAY 20
Traffic pattern: leftleft
Obstructions: 20 ft. sign, 5200 ft. from runway50 ft. pline, 5200 ft. from runway

Airport Ownership and Management from official FAA records

Ownership: Privately-owned
Owner: J. L. OSBORNE
18173 OSBORNE ROAD
VICTORVILLE, CA 92394
Phone 760-245-8477
Manager: J. L. OSBORNE
18173 OSBORNE ROAD
VICTORVILLE, CA 92394
Phone 760-245-8477

Additional Remarks

FOR CD CTC JOSHUA APCH AT 661-277-3843.

Instrument Procedures

There are no published instrument procedures at 8CA0.

Some nearby airports with instrument procedures:

KAPV - Apple Valley Airport (4 nm E)
KVCV - Southern California Logistics Airport (6 nm W)
L35 - Big Bear City Airport (28 nm SE)
KDAG - Barstow-Daggett Airport (29 nm NE)
KSBD - San Bernardino International Airport (29 nm S)
 
Loc | Ops | Rwys | IFR | FBO | Links
Com | Nav | Svcs | Stats | Notes

Luxivair - San Bernardino International Airport
 
Area around 8CA0 (Osborne Airport)
 
Road maps at: MapQuest Bing Google
 
Aerial photo
No photo
 
Sectional chart

 
Airport distance calculator
Flying to Osborne Airport? Find the distance to fly.

From to 8CA0

Sunrise and sunset
Times for 29-Nov-2021
 Local
(UTC-8)
 Zulu
(UTC)
Morning civil twilight06:1014:10
Sunrise06:3714:37
Sunset16:3800:38
Evening civil twilight17:0501:05

Current date and time
Zulu (UTC)  29-Nov-2021 23:42:43
Local (UTC-8)  29-Nov-2021 15:42:43
 
METAR
KVCV 
6nm W 
292310Z AUTO 01005KT 10SM CLR 23/M13 A3015 RMK AO2
KGXA 
20nm W 
291858Z AUTO 00000KT 10SM CLR 20/M15 A3019 RMK AO2 SLP210 WND DATA ESTMD T01951154
TAF
KDAG 
29nm NE 
291720Z 2918/3018 27012KT P6SM SKC FM292000 VRB05KT P6SM SKC FM300400 27007KT P6SM SKC
KSBD 
29nm S 
291722Z 2918/3018 VRB05KT P6SM SKC FM292200 25007KT P6SM SKC FM300300 06004KT P6SM SKC
KEDW 
35nm NW 
292200Z 2922/0104 VRB06KT 9999 SKC QNH3009INS BECMG 3020/3021 05008KT 9999 SKC QNH3008INS BECMG 0100/0101 VRB06KT 9999 SKC QNH3008INS TX23/2923Z TN02/3015Z
KONT 
36nm SW 
291722Z 2918/3024 VRB04KT P6SM SKC FM292100 26008KT P6SM SKC FM300300 04004KT P6SM SKC FM301800 26007KT P6SM SKC
NOTAMs
Click for the latest NOTAMs
NOTAMs are issued by the DoD/FAA and will open in a separate window not controlled by AirNav.

 

 
 

Would you like to see your business listed on this page?

 If your business provides an interesting product or service to pilots, flight crews, aircraft, or users of the Osborne Airport, you should consider listing it here.  To start the listing process, click on the button below
 
Add a business
 

Other Pages about Osborne Airport

Update a link
 
Copyright © AirNav, LLC. All rights reserved. Privacy Policy  Contact